25°C Temp
14°C Dewpoint
51% Humidity
Temperature
13 KM/H
8 MPH
7 KTS
350°
Due North

Wind Speed
Clear
Conditions
Pressure 1015.92 (hPa) - 30 (in)
Visibility 10.0 (mi) - 16.1 (km)

Current Conditions
KSJC
Location 9(km)
Metar :KSJC 252053Z 35007KT 310V010 10SM CLR 25/14 A3000 RMK AO2 SLP159 T02500139 58019 $
Sun 25th September 21:53 pm

Airport
  Metar Aviation API Data Provided by https://www.checkwx.com/ PHP scripts by weather34.com ©2022